createdAt,value
2018-02-05T00:09:20.036Z,32.8
2018-02-05T00:24:20.051Z,29.4
2018-02-05T00:39:20.040Z,34.3
2018-02-05T00:59:20.079Z,18
2018-02-05T01:14:20.440Z,23.8
2018-02-05T01:29:20.136Z,20
2018-02-05T01:44:20.204Z,17.8
2018-02-05T02:04:20.191Z,26.9
2018-02-05T02:19:21.193Z,26.7
2018-02-05T02:34:21.100Z,22
2018-02-05T02:49:21.120Z,18.8
2018-02-05T03:09:21.090Z,18.3
2018-02-05T03:24:21.292Z,15.7
2018-02-05T03:39:21.139Z,15.6
2018-02-05T03:59:21.258Z,22.1
2018-02-05T04:14:21.389Z,17.3
2018-02-05T04:29:21.280Z,15.9
2018-02-05T04:44:21.305Z,12.3
2018-02-05T05:04:21.565Z,10.9
2018-02-05T05:19:21.727Z,8.5
2018-02-05T05:34:21.618Z,8.1
2018-02-05T05:54:21.527Z,8.1
2018-02-05T06:09:21.525Z,8.5
2018-02-05T06:24:21.606Z,8.3
2018-02-05T06:39:21.598Z,7.8
2018-02-05T06:59:23.769Z,8.5
2018-02-05T07:14:24.153Z,7.6
2018-02-05T07:29:24.196Z,10.2
2018-02-05T07:44:24.333Z,13.2
2018-02-05T08:04:24.218Z,11
2018-02-05T08:19:24.395Z,11.3
2018-02-05T08:34:24.231Z,16.8
2018-02-05T08:54:24.247Z,22.7
2018-02-05T09:09:24.245Z,21.8
2018-02-05T09:24:24.508Z,24.8
2018-02-05T09:39:24.357Z,21.6
2018-02-05T09:59:24.486Z,22.1
2018-02-05T10:14:24.454Z,18.7
2018-02-05T10:29:24.787Z,22.4
2018-02-05T10:49:24.609Z,20.1
2018-02-05T11:04:24.877Z,17.2
2018-02-05T11:19:24.921Z,16.5
2018-02-05T11:34:24.973Z,17.6
2018-02-05T11:54:30.540Z,20.1
2018-02-05T12:09:25.459Z,14.6
2018-02-05T12:24:25.415Z,15.9
2018-02-05T12:39:25.662Z,14.9
2018-02-05T12:59:25.472Z,14.3
2018-02-05T13:14:25.493Z,12.9
2018-02-05T13:29:25.431Z,15.1
2018-02-05T13:49:25.704Z,13.4
2018-02-05T14:04:25.488Z,11.3
2018-02-05T14:19:25.697Z,10.2
2018-02-05T14:34:25.565Z,11
2018-02-05T14:54:25.858Z,11.2
2018-02-05T15:09:25.931Z,13.7
2018-02-05T15:24:25.921Z,12.6
2018-02-05T15:59:25.854Z,13.6
2018-02-05T16:29:25.863Z,12.3
2018-02-05T16:49:37.697Z,13.4
2018-02-05T17:04:29.449Z,15.1
2018-02-05T17:19:29.369Z,16.8
2018-02-05T17:39:28.992Z,14.2
2018-02-05T17:54:29.018Z,14.6
2018-02-05T18:09:29.012Z,13.9
2018-02-05T18:24:31.316Z,13
2018-02-05T18:44:29.251Z,12.6
2018-02-05T18:59:29.108Z,13
2018-02-05T19:14:29.150Z,12.7
2018-02-05T19:34:29.487Z,11.2
2018-02-05T19:49:29.522Z,13.4
2018-02-05T20:04:29.535Z,12.7
2018-02-05T20:19:29.562Z,14.2
2018-02-05T20:39:29.702Z,11.3
2018-02-05T20:54:29.695Z,16.4
2018-02-05T21:09:29.686Z,13.9
2018-02-05T21:29:29.809Z,15.1
2018-02-05T21:44:39.379Z,13.7
2018-02-05T21:59:54.356Z,17.7
2018-02-05T22:14:54.318Z,14.4
2018-02-05T22:34:54.343Z,17.4
2018-02-05T22:49:54.458Z,17.9
2018-02-05T23:04:54.373Z,17.3
2018-02-05T23:19:54.549Z,16.5
2018-02-05T23:39:54.559Z,15.9
2018-02-05T23:54:54.549Z,17.5
